Time;durP1;ratioP1;P1;durP2;ratioP2;P2;SDS_P1;SDS_P2;PMS_P1;PMS_P2;Temp;Humidity;BMP_temperature;BMP_pressure;BME280_temperature;BME280_humidity;BME280_pressure;Samples;Min_cycle;Max_cycle;Signal;HPM_P1;HPM_P2
2021/10/29 00:01:20;;;;;;;28.33;17.67;;;8.20;99.90;;;;;;5088548;28;20485;-48
2021/10/29 00:03:46;;;;;;;29.70;19.90;;;8.10;99.90;;;;;;5088594;28;20034;-47
2021/10/29 00:06:11;;;;;;;28.85;17.50;;;8.10;99.90;;;;;;5088767;28;20034;-47
2021/10/29 00:08:37;;;;;;;29.35;18.48;;;8.10;99.90;;;;;;5087864;28;20032;-48
2021/10/29 00:11:03;;;;;;;34.88;19.23;;;8.10;99.90;;;;;;5088572;28;20107;-50
2021/10/29 00:13:29;;;;;;;33.17;19.55;;;8.10;99.90;;;;;;5088439;28;20028;-50
2021/10/29 00:15:55;;;;;;;28.40;18.77;;;8.10;99.90;;;;;;5077026;28;20016;-48
2021/10/29 00:18:21;;;;;;;31.48;18.48;;;8.10;99.90;;;;;;5078131;28;20477;-47
2021/10/29 00:20:46;;;;;;;35.15;19.83;;;8.10;99.90;;;;;;5088628;28;20035;-48
2021/10/29 00:23:12;;;;;;;31.25;18.92;;;8.10;99.90;;;;;;5088680;28;20103;-50
2021/10/29 00:25:37;;;;;;;30.55;17.95;;;8.20;99.90;;;;;;5088749;28;20440;-50
2021/10/29 00:28:03;;;;;;;27.58;18.20;;;8.20;99.90;;;;;;5088088;28;20466;-48
2021/10/29 00:30:28;;;;;;;31.23;18.33;;;8.20;99.90;;;;;;5088019;28;20056;-48
2021/10/29 00:32:54;;;;;;;31.17;17.95;;;8.20;99.90;;;;;;5086800;28;20025;-48
2021/10/29 00:35:20;;;;;;;29.88;17.67;;;8.10;99.90;;;;;;5088206;28;20020;-50
2021/10/29 00:37:45;;;;;;;32.08;18.48;;;8.10;99.90;;;;;;5087472;28;20020;-47
2021/10/29 00:40:12;;;;;;;27.55;17.75;;;8.10;99.90;;;;;;5087997;28;20056;-49
2021/10/29 00:42:39;;;;;;;30.83;16.48;;;8.00;99.90;;;;;;5091266;28;20024;-51
2021/10/29 00:45:06;;;;;;;26.45;16.13;;;8.00;99.90;;;;;;5089054;28;20028;-49
2021/10/29 00:47:31;;;;;;;30.13;18.20;;;7.90;99.90;;;;;;5075414;28;20031;-48
2021/10/29 00:49:57;;;;;;;25.98;16.85;;;7.90;99.90;;;;;;5091884;28;20028;-50
2021/10/29 00:52:22;;;;;;;23.17;14.30;;;7.80;99.90;;;;;;5091834;28;20103;-49
2021/10/29 00:54:48;;;;;;;26.60;15.85;;;7.80;99.90;;;;;;5091659;28;20304;-49
2021/10/29 00:57:13;;;;;;;28.17;16.90;;;7.70;99.90;;;;;;5089808;28;20036;-47
2021/10/29 00:59:39;;;;;;;26.00;16.25;;;7.70;99.90;;;;;;5091261;28;20033;-46
2021/10/29 01:02:05;;;;;;;28.20;16.67;;;7.70;99.90;;;;;;5091765;28;20111;-48
2021/10/29 01:04:30;;;;;;;26.77;16.75;;;7.60;99.90;;;;;;5091336;28;20028;-47
2021/10/29 01:06:57;;;;;;;29.13;16.98;;;7.50;99.90;;;;;;5091450;28;20127;-47
2021/10/29 01:09:22;;;;;;;25.80;16.55;;;7.50;99.90;;;;;;5091382;28;20024;-46
2021/10/29 01:11:48;;;;;;;24.65;15.45;;;7.50;99.90;;;;;;5091738;28;20028;-47
2021/10/29 01:14:14;;;;;;;25.67;15.63;;;7.40;99.90;;;;;;5091456;28;20103;-47
2021/10/29 01:16:39;;;;;;;27.83;16.65;;;7.40;99.90;;;;;;5080700;28;20016;-47
2021/10/29 01:19:05;;;;;;;28.85;15.77;;;7.40;99.90;;;;;;5083421;28;20077;-46
2021/10/29 01:21:32;;;;;;;23.60;14.30;;;7.40;99.90;;;;;;5091222;28;20442;-48
2021/10/29 01:23:57;;;;;;;26.70;14.90;;;7.30;99.90;;;;;;5091292;28;20031;-46
2021/10/29 01:26:23;;;;;;;25.05;15.85;;;7.30;99.90;;;;;;5091171;28;20032;-47
2021/10/29 01:28:49;;;;;;;22.88;13.13;;;7.20;99.90;;;;;;5090651;28;20095;-46
2021/10/29 01:31:16;;;;;;;26.90;15.73;;;7.20;99.90;;;;;;5084493;28;20497;-47
2021/10/29 01:33:42;;;;;;;27.48;15.07;;;7.10;99.90;;;;;;5081589;28;20019;-46
2021/10/29 01:36:08;;;;;;;29.02;15.35;;;7.10;99.90;;;;;;5069625;28;20021;-47
2021/10/29 01:38:42;;;;;;;24.77;15.20;;;7.10;99.90;;;;;;5070121;28;20123;-49
2021/10/29 01:41:09;;;;;;;26.45;15.85;;;7.00;99.90;;;;;;5070448;28;20043;-48
2021/10/29 01:43:47;;;;;;;21.20;13.82;;;7.00;99.90;;;;;;5070417;28;20409;-46
2021/10/29 01:46:15;;;;;;;23.13;13.75;;;6.90;99.90;;;;;;5066453;28;20078;-47
2021/10/29 01:48:46;;;;;;;22.95;14.57;;;6.90;99.90;;;;;;5078079;28;20032;-50
2021/10/29 01:51:13;;;;;;;24.08;15.13;;;6.80;99.90;;;;;;5069074;28;20052;-47
2021/10/29 01:53:39;;;;;;;28.30;15.93;;;6.80;99.90;;;;;;5070157;28;20021;-46
2021/10/29 01:56:05;;;;;;;28.77;16.02;;;6.70;99.90;;;;;;5069170;28;20039;-47
2021/10/29 01:58:31;;;;;;;25.55;15.80;;;6.70;99.90;;;;;;5069948;28;20016;-47
2021/10/29 02:00:57;;;;;;;31.08;16.95;;;6.70;99.90;;;;;;5068693;28;20155;-46
2021/10/29 02:03:22;;;;;;;29.38;16.80;;;6.70;99.90;;;;;;5070114;28;20032;-47
2021/10/29 02:05:48;;;;;;;27.60;16.33;;;6.60;99.90;;;;;;5070392;28;20115;-48
2021/10/29 02:08:13;;;;;;;26.80;15.35;;;6.60;99.90;;;;;;5069425;28;20402;-46
2021/10/29 02:10:39;;;;;;;32.00;18.88;;;6.50;99.90;;;;;;5070367;28;20037;-49
2021/10/29 02:13:04;;;;;;;29.40;16.88;;;6.60;99.90;;;;;;5069852;28;20031;-47
2021/10/29 02:15:30;;;;;;;26.27;16.05;;;6.60;99.90;;;;;;5061099;28;20430;-47
2021/10/29 02:17:56;;;;;;;24.83;14.38;;;6.50;99.90;;;;;;5080597;28;20081;-46
2021/10/29 02:20:22;;;;;;;29.15;16.80;;;6.50;99.90;;;;;;5090137;28;20024;-47
2021/10/29 02:22:47;;;;;;;25.90;14.80;;;6.50;99.90;;;;;;5090088;28;20024;-49
2021/10/29 02:25:13;;;;;;;32.50;18.60;;;6.60;99.90;;;;;;5088676;28;20034;-48
2021/10/29 02:27:39;;;;;;;31.73;19.42;;;6.50;99.90;;;;;;5078470;28;20021;-50
2021/10/29 02:30:05;;;;;;;34.10;18.08;;;6.50;99.90;;;;;;5081063;28;20116;-51
2021/10/29 02:32:31;;;;;;;26.92;16.75;;;6.50;99.90;;;;;;5089985;28;20031;-48
2021/10/29 02:34:56;;;;;;;23.35;14.90;;;6.40;99.90;;;;;;5089928;28;20028;-49
2021/10/29 02:37:22;;;;;;;27.55;16.98;;;6.30;99.90;;;;;;5089190;28;20023;-50
2021/10/29 02:39:48;;;;;;;31.52;18.33;;;6.30;99.90;;;;;;5089428;28;20459;-48
2021/10/29 02:42:13;;;;;;;30.38;17.67;;;6.40;99.90;;;;;;5089633;28;20020;-48
2021/10/29 02:44:39;;;;;;;25.15;14.55;;;6.40;99.90;;;;;;5089749;28;20102;-50
2021/10/29 02:47:04;;;;;;;31.90;17.77;;;6.30;99.90;;;;;;5079221;28;20035;-47
2021/10/29 02:49:30;;;;;;;30.02;17.15;;;6.30;99.90;;;;;;5085838;28;20042;-51
2021/10/29 02:51:55;;;;;;;29.58;16.77;;;6.40;99.90;;;;;;5088096;28;20149;-47
2021/10/29 02:54:21;;;;;;;29.17;16.67;;;6.40;99.90;;;;;;5088373;28;20017;-48
2021/10/29 02:56:47;;;;;;;30.48;16.95;;;6.30;99.90;;;;;;5089569;28;20024;-47
2021/10/29 02:59:12;;;;;;;23.67;15.20;;;6.30;99.90;;;;;;5088939;28;20020;-50
2021/10/29 03:01:38;;;;;;;26.88;14.80;;;6.30;99.90;;;;;;5087930;28;20549;-48
2021/10/29 03:04:03;;;;;;;21.38;13.77;;;6.20;99.90;;;;;;5088538;28;20301;-48
2021/10/29 03:06:29;;;;;;;23.65;13.27;;;6.20;99.90;;;;;;5089213;28;20027;-50
2021/10/29 03:08:55;;;;;;;25.00;15.15;;;6.10;99.90;;;;;;5088260;28;20040;-47
2021/10/29 03:11:20;;;;;;;35.45;16.73;;;6.00;99.90;;;;;;5088984;28;20039;-46
2021/10/29 03:13:45;;;;;;;29.48;16.80;;;6.00;99.90;;;;;;5088964;28;20036;-48
2021/10/29 03:16:11;;;;;;;35.13;18.15;;;6.10;99.90;;;;;;5085699;28;20389;-48
2021/10/29 03:18:37;;;;;;;34.45;16.83;;;6.10;99.90;;;;;;5079830;28;20035;-48
2021/10/29 03:21:02;;;;;;;27.27;15.55;;;6.00;99.90;;;;;;5089206;28;20060;-48
2021/10/29 03:23:28;;;;;;;31.55;16.58;;;6.00;99.90;;;;;;5087650;28;20035;-48
2021/10/29 03:25:55;;;;;;;27.85;15.77;;;5.90;99.90;;;;;;5089161;28;20086;-48
2021/10/29 03:28:20;;;;;;;28.80;16.50;;;5.90;99.90;;;;;;5087033;28;20039;-51
2021/10/29 03:30:46;;;;;;;27.55;14.65;;;5.90;99.90;;;;;;5088534;28;20020;-49
2021/10/29 03:33:11;;;;;;;29.42;14.80;;;5.90;99.90;;;;;;5088762;28;20020;-49
2021/10/29 03:35:37;;;;;;;26.70;15.20;;;5.80;99.90;;;;;;5088902;28;20622;-48
2021/10/29 03:40:53;;;;;;;26.50;15.45;;;5.80;99.90;;;;;;5089375;28;20411;-46
2021/10/29 03:43:30;;;;;;;29.95;14.60;;;5.70;99.90;;;;;;5078220;28;20028;-48
2021/10/29 03:46:00;;;;;;;30.85;15.20;;;5.70;99.90;;;;;;5058898;28;20024;-46
2021/10/29 03:51:43;;;;;;;28.65;15.75;;;5.70;99.90;;;;;;5051411;28;20037;-46
2021/10/29 03:54:16;;;;;;;27.88;14.70;;;5.70;99.90;;;;;;5057518;28;20692;-48
2021/10/29 03:56:45;;;;;;;34.80;17.33;;;5.60;99.90;;;;;;5066694;28;20070;-47
2021/10/29 03:59:11;;;;;;;28.00;15.80;;;5.60;99.90;;;;;;5061992;28;20020;-50
2021/10/29 04:01:38;;;;;;;30.45;16.75;;;5.60;99.90;;;;;;5064033;28;20037;-47
2021/10/29 04:04:03;;;;;;;30.08;16.08;;;5.60;99.90;;;;;;5060388;28;20474;-46
2021/10/29 04:06:29;;;;;;;35.35;17.70;;;5.60;99.90;;;;;;5048552;28;20029;-49
2021/10/29 04:08:55;;;;;;;32.70;17.67;;;5.60;99.90;;;;;;5048227;28;20036;-49
2021/10/29 04:11:23;;;;;;;32.05;17.58;;;5.60;99.90;;;;;;5057130;28;20032;-46
2021/10/29 04:13:49;;;;;;;28.63;16.42;;;5.50;99.90;;;;;;5057849;28;20082;-49
2021/10/29 04:16:14;;;;;;;23.90;14.80;;;5.50;99.90;;;;;;5062699;28;20021;-46
2021/10/29 04:18:40;;;;;;;25.65;14.73;;;5.50;99.90;;;;;;5067845;28;20394;-46
2021/10/29 04:21:06;;;;;;;26.55;14.65;;;5.50;99.90;;;;;;5060992;28;20108;-48
2021/10/29 04:23:32;;;;;;;29.38;15.98;;;5.50;99.90;;;;;;5061879;28;20075;-50
2021/10/29 04:25:58;;;;;;;29.35;16.90;;;5.50;99.90;;;;;;5064745;28;20757;-47
2021/10/29 04:28:25;;;;;;;35.28;17.88;;;5.50;99.90;;;;;;5067617;28;20021;-49
2021/10/29 04:30:52;;;;;;;34.78;17.80;;;5.50;99.90;;;;;;5061734;28;20035;-47
2021/10/29 04:33:18;;;;;;;31.88;16.65;;;5.50;99.90;;;;;;5060177;28;20017;-47
2021/10/29 04:35:45;;;;;;;29.42;16.67;;;5.50;99.90;;;;;;5060554;28;20094;-49
2021/10/29 04:38:12;;;;;;;27.98;16.23;;;5.50;99.90;;;;;;5060810;28;20019;-50
2021/10/29 04:40:40;;;;;;;29.38;16.33;;;5.40;99.90;;;;;;5060296;28;20029;-51
2021/10/29 04:43:07;;;;;;;30.40;15.82;;;5.40;99.90;;;;;;5060076;28;20482;-48
2021/10/29 04:45:33;;;;;;;29.73;15.18;;;5.40;99.90;;;;;;5061592;28;20031;-49
2021/10/29 04:48:00;;;;;;;34.22;16.38;;;5.40;99.90;;;;;;5063659;28;20032;-49
2021/10/29 04:50:26;;;;;;;26.77;15.23;;;5.30;99.90;;;;;;5063812;28;20040;-49
2021/10/29 04:52:52;;;;;;;29.67;15.98;;;5.30;99.90;;;;;;5061226;28;20016;-47
2021/10/29 04:55:17;;;;;;;28.67;15.45;;;5.30;99.90;;;;;;5059786;28;20017;-49
2021/10/29 04:57:43;;;;;;;33.80;17.30;;;5.30;99.90;;;;;;5059196;28;20031;-49
2021/10/29 05:00:10;;;;;;;27.75;15.80;;;5.30;99.90;;;;;;5059708;28;20013;-47
2021/10/29 05:02:36;;;;;;;26.88;14.93;;;5.30;99.90;;;;;;5059626;28;20060;-48
2021/10/29 05:05:06;;;;;;;28.75;14.75;;;5.20;99.90;;;;;;5059822;28;20059;-47
2021/10/29 05:07:33;;;;;;;27.50;15.13;;;5.10;99.90;;;;;;5058716;28;20017;-48
2021/10/29 05:09:58;;;;;;;25.15;14.05;;;5.10;99.90;;;;;;5060025;28;20267;-49
2021/10/29 05:12:25;;;;;;;27.35;16.00;;;5.10;99.90;;;;;;5060676;28;20028;-47
2021/10/29 05:14:51;;;;;;;26.05;16.15;;;5.10;99.90;;;;;;5057650;28;20108;-49
2021/10/29 05:17:17;;;;;;;26.23;16.25;;;5.20;99.90;;;;;;5062951;28;20030;-46
2021/10/29 05:19:42;;;;;;;25.23;15.60;;;5.10;99.90;;;;;;5067167;28;20021;-46
2021/10/29 05:22:08;;;;;;;24.98;13.93;;;5.10;99.90;;;;;;5060755;28;20099;-46
2021/10/29 05:24:34;;;;;;;23.30;13.55;;;5.00;99.90;;;;;;5059584;28;20071;-46
2021/10/29 05:27:00;;;;;;;26.63;14.95;;;5.00;99.90;;;;;;5059270;28;20105;-47
2021/10/29 05:29:25;;;;;;;26.17;15.60;;;4.90;99.90;;;;;;5058805;28;20108;-47
2021/10/29 05:31:52;;;;;;;29.58;16.40;;;5.00;99.90;;;;;;5060239;28;20439;-47
2021/10/29 05:34:18;;;;;;;28.38;14.93;;;5.00;99.90;;;;;;5060013;28;20024;-49
2021/10/29 05:36:43;;;;;;;27.30;15.68;;;5.00;99.90;;;;;;5058447;28;20452;-47
2021/10/29 05:39:10;;;;;;;24.70;13.85;;;4.90;99.90;;;;;;5059603;28;20033;-49
2021/10/29 05:41:36;;;;;;;31.05;15.85;;;4.90;99.90;;;;;;5058384;28;20024;-47
2021/10/29 05:44:01;;;;;;;25.10;14.80;;;4.90;99.90;;;;;;5060132;28;20037;-49
2021/10/29 05:46:30;;;;;;;31.00;16.90;;;5.00;99.90;;;;;;5057085;28;20358;-48
2021/10/29 05:48:56;;;;;;;28.70;15.68;;;5.00;99.90;;;;;;5067504;28;20432;-47
2021/10/29 05:51:23;;;;;;;26.20;14.95;;;5.00;99.90;;;;;;5058541;28;20029;-47
2021/10/29 05:56:14;;;;;;;27.73;16.02;;;5.00;99.90;;;;;;5056634;28;20442;-48
2021/10/29 05:58:40;;;;;;;32.97;17.45;;;5.00;99.90;;;;;;5064960;28;20036;-49
2021/10/29 06:01:05;;;;;;;26.88;15.90;;;5.00;99.90;;;;;;5053634;28;20544;-48
2021/10/29 06:03:31;;;;;;;27.05;15.15;;;4.90;99.90;;;;;;5065960;28;20020;-46
2021/10/29 06:05:56;;;;;;;31.23;15.73;;;4.90;99.90;;;;;;5081361;28;20501;-48
2021/10/29 06:08:22;;;;;;;29.52;16.90;;;4.90;99.90;;;;;;5064953;28;20083;-47
2021/10/29 06:10:48;;;;;;;27.88;16.40;;;4.90;99.90;;;;;;5067656;28;20414;-47
2021/10/29 06:13:13;;;;;;;29.50;15.88;;;4.90;99.90;;;;;;5063945;28;20300;-49
2021/10/29 06:15:43;;;;;;;27.65;16.23;;;4.90;99.90;;;;;;5065742;28;20024;-48
2021/10/29 06:18:09;;;;;;;25.52;15.77;;;4.90;99.90;;;;;;5060933;28;20394;-48
2021/10/29 06:20:35;;;;;;;28.17;15.30;;;4.90;99.90;;;;;;5064863;28;20017;-48
2021/10/29 06:23:05;;;;;;;22.17;14.43;;;4.80;99.90;;;;;;5058342;28;20024;-47
2021/10/29 06:25:39;;;;;;;24.17;14.47;;;4.80;99.90;;;;;;5058835;28;20100;-48
2021/10/29 06:28:38;;;;;;;27.52;15.65;;;4.80;99.90;;;;;;5064000;28;20059;-50
2021/10/29 06:30:58;;;;;;;28.70;17.48;;;4.90;99.90;;;;;;5055890;28;20037;-47
2021/10/29 06:33:24;;;;;;;31.95;17.60;;;4.90;99.90;;;;;;5065366;28;20447;-47
2021/10/29 06:35:51;;;;;;;28.35;15.48;;;5.00;99.90;;;;;;5064649;28;20028;-49
2021/10/29 06:38:17;;;;;;;26.05;15.07;;;4.90;99.90;;;;;;5065746;28;20031;-47
2021/10/29 06:40:45;;;;;;;27.25;15.00;;;4.90;99.90;;;;;;5062923;28;20222;-50
2021/10/29 06:43:26;;;;;;;27.40;15.43;;;4.90;99.90;;;;;;5065672;28;20040;-48
2021/10/29 06:46:09;;;;;;;28.35;15.90;;;4.90;99.90;;;;;;5065059;28;20063;-48
2021/10/29 06:48:50;;;;;;;28.77;14.57;;;5.00;99.90;;;;;;5066540;28;20372;-48
2021/10/29 06:59:32;;;;;;;28.50;16.08;;;5.10;99.90;;;;;;5059787;28;20575;-50
2021/10/29 07:40:44;;;;;;;32.25;16.92;;;5.70;99.90;;;;;;5049161;28;20468;-48
2021/10/29 07:43:14;;;;;;;27.05;15.68;;;5.70;99.90;;;;;;5048391;28;20390;-48
2021/10/29 07:45:40;;;;;;;24.30;15.57;;;5.80;99.90;;;;;;5048688;28;20120;-50
2021/10/29 07:48:06;;;;;;;23.77;14.40;;;5.80;99.90;;;;;;5068103;28;20024;-47
2021/10/29 07:50:32;;;;;;;25.02;14.50;;;5.90;99.90;;;;;;5084122;28;20039;-50
2021/10/29 07:52:58;;;;;;;24.20;14.25;;;5.90;99.90;;;;;;5088487;28;20024;-47
2021/10/29 07:55:25;;;;;;;25.23;15.68;;;6.00;99.90;;;;;;5088363;28;20389;-51
2021/10/29 07:57:51;;;;;;;23.23;14.23;;;6.10;99.90;;;;;;5087629;28;20056;-48
2021/10/29 08:00:18;;;;;;;27.17;15.45;;;6.10;99.90;;;;;;5088417;28;20099;-48
2021/10/29 08:02:46;;;;;;;23.83;15.02;;;6.20;99.90;;;;;;5078723;28;20634;-48
2021/10/29 08:05:12;;;;;;;31.10;17.75;;;6.30;99.90;;;;;;5067972;28;20029;-50
2021/10/29 08:07:38;;;;;;;23.08;14.60;;;6.40;99.90;;;;;;5067416;28;20595;-50
2021/10/29 08:10:06;;;;;;;24.60;13.88;;;6.40;99.90;;;;;;5067905;28;20021;-49
2021/10/29 08:12:33;;;;;;;27.48;14.32;;;6.50;99.90;;;;;;5068167;28;20474;-47
2021/10/29 08:15:01;;;;;;;24.05;16.15;;;6.60;99.90;;;;;;5066759;28;20025;-50
2021/10/29 08:17:27;;;;;;;22.30;14.35;;;6.70;99.90;;;;;;5071021;28;20030;-50
2021/10/29 08:19:52;;;;;;;23.08;14.20;;;6.80;99.90;;;;;;5079881;28;20016;-47
2021/10/29 08:22:18;;;;;;;21.65;13.95;;;6.80;99.90;;;;;;5088310;28;20066;-49
2021/10/29 08:24:44;;;;;;;28.65;15.07;;;6.90;99.90;;;;;;5088035;28;20505;-47
2021/10/29 08:27:10;;;;;;;21.25;13.82;;;7.00;99.90;;;;;;5087585;28;20384;-47
2021/10/29 08:29:37;;;;;;;20.75;14.38;;;7.10;99.90;;;;;;5087904;28;20515;-50
2021/10/29 08:32:03;;;;;;;21.92;13.45;;;7.20;99.90;;;;;;5087791;28;20043;-47
2021/10/29 08:34:29;;;;;;;20.85;13.20;;;7.20;99.90;;;;;;5088151;28;20040;-50
2021/10/29 08:36:56;;;;;;;21.15;12.95;;;7.30;99.90;;;;;;5087796;28;20086;-49
2021/10/29 08:39:26;;;;;;;20.45;12.73;;;7.40;99.90;;;;;;5087471;28;20025;-47
2021/10/29 08:41:52;;;;;;;23.30;12.32;;;7.50;99.90;;;;;;5087857;28;20028;-49
2021/10/29 08:44:18;;;;;;;18.05;11.77;;;7.60;99.90;;;;;;5087967;28;20313;-47
2021/10/29 08:46:44;;;;;;;22.95;12.93;;;7.70;99.90;;;;;;5080388;28;20104;-48
2021/10/29 08:49:12;;;;;;;15.90;11.27;;;7.80;99.90;;;;;;5078755;28;20024;-48
2021/10/29 08:51:38;;;;;;;26.75;13.05;;;7.90;99.90;;;;;;5087619;28;20032;-50
2021/10/29 08:54:05;;;;;;;20.40;13.13;;;8.00;99.90;;;;;;5087829;28;20077;-49
2021/10/29 08:56:30;;;;;;;16.83;11.00;;;8.20;99.90;;;;;;5088070;28;20074;-48
2021/10/29 08:59:13;;;;;;;16.02;11.07;;;8.30;99.90;;;;;;5080558;28;20458;-50
2021/10/29 09:02:16;;;;;;;15.27;10.80;;;8.50;99.90;;;;;;5062847;28;20032;-49
2021/10/29 09:32:57;;;;;;;7.35;5.65;;;19.50;95.10;;;;;;5078877;28;20036;-52
2021/10/29 09:35:28;;;;;;;7.20;5.53;;;21.50;88.20;;;;;;5089527;28;20024;-51
2021/10/29 09:38:00;;;;;;;8.20;5.35;;;23.00;76.90;;;;;;5089962;28;20412;-53
2021/10/29 09:40:31;;;;;;;5.97;4.15;;;24.10;71.00;;;;;;5065652;28;20036;-53
2021/10/29 09:43:19;;;;;;;5.75;4.25;;;25.50;66.80;;;;;;5062444;28;20064;-53
2021/10/29 09:46:01;;;;;;;7.72;3.80;;;26.60;59.80;;;;;;5062013;28;20603;-53
2021/10/29 09:48:51;;;;;;;6.60;3.47;;;27.50;56.20;;;;;;5064459;28;20478;-54
2021/10/29 09:51:19;;;;;;;3.65;3.28;;;27.90;55.00;;;;;;5070027;28;20029;-53
2021/10/29 09:58:48;;;;;;;6.97;2.78;;;29.10;49.50;;;;;;5064150;28;20433;-53
2021/10/29 10:01:15;;;;;;;3.13;2.30;;;29.50;51.00;;;;;;5068957;28;20016;-53
2021/10/29 10:03:46;;;;;;;5.65;2.95;;;30.30;50.00;;;;;;5068677;28;20113;-52
2021/10/29 10:06:13;;;;;;;5.60;2.65;;;30.80;47.10;;;;;;5068749;28;20383;-52
2021/10/29 10:08:39;;;;;;;5.13;2.90;;;30.90;47.50;;;;;;5068762;28;20024;-53
2021/10/29 10:11:06;;;;;;;6.97;3.15;;;31.20;47.10;;;;;;5068050;28;20033;-53
2021/10/29 10:13:33;;;;;;;7.60;2.63;;;31.50;46.10;;;;;;5068691;28;20021;-52
2021/10/29 10:16:02;;;;;;;3.90;2.70;;;31.10;44.60;;;;;;5071467;28;20460;-52
2021/10/29 10:18:27;;;;;;;4.00;2.17;;;30.40;47.50;;;;;;5080337;28;20043;-52
2021/10/29 10:20:57;;;;;;;4.97;2.30;;;30.50;45.70;;;;;;5089204;28;20067;-53
2021/10/29 10:23:29;;;;;;;;;;;30.60;46.70;;;;;;5090137;28;20016;-52
2021/10/29 10:40:48;;;;;;;8.03;4.57;;;31.60;44.60;;;;;;5070025;28;20035;-54
2021/10/29 10:45:58;;;;;;;5.72;3.53;;;30.20;46.20;;;;;;5069388;28;20036;-53
2021/10/29 10:48:34;;;;;;;6.28;2.90;;;29.90;47.50;;;;;;5064484;28;20027;-53
2021/10/29 10:54:15;;;;;;;7.38;2.50;;;31.00;45.50;;;;;;5088202;28;20031;-53
2021/10/29 10:57:32;;;;;;;2.97;2.03;;;30.70;43.70;;;;;;5085446;28;20086;-53
2021/10/29 11:11:04;;;;;;;3.92;2.50;;;28.90;45.50;;;;;;5089402;28;19908;-53
2021/10/29 11:13:45;;;;;;;5.22;2.47;;;29.30;45.80;;;;;;5088898;28;20158;-53
2021/10/29 11:16:38;;;;;;;6.07;2.53;;;29.60;45.40;;;;;;5088883;28;20427;-53
2021/10/29 11:19:22;;;;;;;6.60;2.60;;;30.40;43.60;;;;;;5065146;28;20422;-53
2021/10/29 11:22:05;;;;;;;3.10;2.55;;;30.00;43.70;;;;;;5087797;28;20034;-52
2021/10/29 11:24:35;;;;;;;4.70;2.47;;;29.90;44.00;;;;;;5088294;28;20554;-53
2021/10/29 11:27:15;;;;;;;4.03;2.47;;;29.80;43.30;;;;;;5088307;28;20028;-52
2021/10/29 11:29:49;;;;;;;3.90;2.45;;;29.30;42.00;;;;;;5088870;28;20670;-53
2021/10/29 11:32:18;;;;;;;5.85;2.50;;;29.30;43.20;;;;;;5087393;28;20028;-52
2021/10/29 11:34:47;;;;;;;4.65;2.22;;;28.20;41.80;;;;;;5089100;28;20034;-51
2021/10/29 11:37:13;;;;;;;3.63;2.28;;;27.00;44.00;;;;;;5086746;28;20017;-53
2021/10/29 11:39:39;;;;;;;6.78;2.20;;;26.80;45.10;;;;;;5088597;28;20092;-52
2021/10/29 11:42:05;;;;;;;6.68;2.40;;;27.30;45.30;;;;;;5088627;28;20027;-53
2021/10/29 11:44:31;;;;;;;3.42;2.20;;;26.20;45.70;;;;;;5088597;28;20107;-52
2021/10/29 11:46:56;;;;;;;5.65;2.50;;;26.30;47.60;;;;;;5081269;28;20112;-52
2021/10/29 11:49:25;;;;;;;5.88;2.25;;;26.50;45.80;;;;;;5071247;28;20104;-52
2021/10/29 11:51:54;;;;;;;7.63;2.80;;;26.60;45.30;;;;;;5087439;28;20028;-51
2021/10/29 11:54:24;;;;;;;6.18;2.53;;;27.00;45.00;;;;;;5088362;28;20058;-53
2021/10/29 12:07:34;;;;;;;3.75;2.13;;;27.90;45.80;;;;;;5067295;28;20028;-52
2021/10/29 12:10:21;;;;;;;3.70;2.10;;;27.50;46.10;;;;;;5088288;28;20127;-52
2021/10/29 12:12:50;;;;;;;5.30;2.10;;;26.70;44.20;;;;;;5088081;28;20066;-52
2021/10/29 12:15:18;;;;;;;5.30;1.90;;;25.70;46.20;;;;;;5088145;28;20097;-52
2021/10/29 12:17:51;;;;;;;6.97;2.22;;;25.40;46.50;;;;;;5073262;28;20021;-51
2021/10/29 12:20:27;;;;;;;4.15;2.15;;;24.40;47.40;;;;;;5079600;28;20032;-51
2021/10/29 12:22:55;;;;;;;3.58;2.42;;;23.90;48.30;;;;;;5087945;28;20028;-51
2021/10/29 12:28:15;;;;;;;3.47;2.10;;;23.90;49.50;;;;;;5078540;28;20039;-51
2021/10/29 12:31:07;;;;;;;6.22;2.83;;;24.00;49.50;;;;;;5088267;28;20576;-51
2021/10/29 12:36:55;;;;;;;8.30;2.42;;;23.00;50.40;;;;;;5089107;28;20068;-51
2021/10/29 12:53:42;;;;;;;4.23;2.67;;;22.60;51.30;;;;;;5071633;28;20551;-50
2021/10/29 13:01:58;;;;;;;5.50;2.33;;;22.70;53.50;;;;;;5071486;28;20036;-50
2021/10/29 13:04:45;;;;;;;7.28;2.47;;;22.70;51.00;;;;;;5071257;28;20459;-50
2021/10/29 13:07:12;;;;;;;3.25;2.53;;;22.50;51.00;;;;;;5071109;28;20077;-51
2021/10/29 13:09:39;;;;;;;6.65;2.17;;;22.60;52.00;;;;;;5071174;28;20485;-51
2021/10/29 13:17:00;;;;;;;5.05;2.20;;;22.70;53.20;;;;;;5069383;28;20086;-50
2021/10/29 13:24:47;;;;;;;5.25;2.40;;;22.50;52.40;;;;;;5051082;28;20036;-51
2021/10/29 13:27:31;;;;;;;5.70;2.47;;;22.60;53.50;;;;;;5050351;28;20063;-51
2021/10/29 13:35:33;;;;;;;3.53;2.28;;;22.50;58.20;;;;;;5050970;28;20031;-51
2021/10/29 13:54:08;;;;;;;3.30;2.33;;;21.90;54.80;;;;;;5090942;28;20397;-50
2021/10/29 14:01:57;;;;;;;5.30;2.35;;;21.40;56.80;;;;;;5090685;28;20444;-49
2021/10/29 14:29:05;;;;;;;9.95;3.78;;;19.60;61.90;;;;;;5089435;28;20057;-49
2021/10/29 14:31:42;;;;;;;4.97;3.60;;;19.50;64.50;;;;;;5090054;28;20035;-48
2021/10/29 14:34:13;;;;;;;7.47;4.03;;;19.30;65.80;;;;;;5089984;28;20047;-47
2021/10/29 14:39:24;;;;;;;12.45;5.07;;;19.00;68.90;;;;;;5089600;28;20111;-48
2021/10/29 14:44:52;;;;;;;17.08;5.53;;;18.60;70.90;;;;;;5089679;28;20051;-50
2021/10/29 14:50:51;;;;;;;9.13;4.95;;;18.30;73.60;;;;;;5070146;28;20031;-50
2021/10/29 15:01:30;;;;;;;14.05;6.25;;;17.50;77.80;;;;;;5058968;28;20024;-47
2021/10/29 15:04:06;;;;;;;7.85;5.93;;;17.30;78.80;;;;;;5068887;28;20052;-48
2021/10/29 15:15:34;;;;;;;10.27;6.38;;;16.80;84.70;;;;;;5045156;28;20115;-48
2021/10/29 15:18:03;;;;;;;11.15;6.00;;;16.60;87.30;;;;;;5084284;28;20367;-49
2021/10/29 15:26:23;;;;;;;11.73;6.70;;;16.30;90.40;;;;;;5087312;28;20501;-47
2021/10/29 15:29:00;;;;;;;13.25;7.65;;;16.20;91.00;;;;;;5086645;28;20482;-48
2021/10/29 15:42:32;;;;;;;10.80;5.97;;;15.50;95.30;;;;;;5063338;28;20059;-47
2021/10/29 15:45:07;;;;;;;7.18;5.03;;;15.30;95.90;;;;;;5058275;28;20020;-47
2021/10/29 15:48:20;;;;;;;8.82;5.40;;;15.10;97.60;;;;;;5053319;28;21246;-50
2021/10/29 15:50:18;;;;;;;9.40;5.68;;;15.00;98.50;;;;;;5071262;28;20032;-51
2021/10/29 15:52:52;;;;;;;13.15;6.53;;;14.80;98.90;;;;;;5087885;28;20028;-51
2021/10/29 15:55:29;;;;;;;14.02;5.55;;;14.70;99.90;;;;;;5087780;28;20485;-50
2021/10/29 16:03:19;;;;;;;9.93;6.28;;;14.50;99.90;;;;;;5087995;28;20081;-50
2021/10/29 16:19:27;;;;;;;10.38;6.32;;;14.10;99.90;;;;;;5079886;28;20039;-50
2021/10/29 16:21:52;;;;;;;12.45;7.05;;;14.00;99.90;;;;;;5092027;28;20020;-49
2021/10/29 16:24:19;;;;;;;13.75;7.10;;;14.10;99.90;;;;;;5091900;28;20030;-52
2021/10/29 16:26:46;;;;;;;17.98;7.00;;;14.00;99.90;;;;;;5074912;28;20017;-52
2021/10/29 16:29:14;;;;;;;13.70;7.35;;;14.00;99.90;;;;;;5081882;28;20028;-52
2021/10/29 16:31:44;;;;;;;12.40;7.80;;;14.00;99.90;;;;;;5091122;28;20024;-49
2021/10/29 16:34:10;;;;;;;15.00;8.48;;;14.00;99.90;;;;;;5091391;28;20075;-47
2021/10/29 16:36:36;;;;;;;18.63;9.00;;;13.90;99.90;;;;;;5092207;28;20060;-48
2021/10/29 16:39:02;;;;;;;15.85;9.13;;;13.80;99.90;;;;;;5090982;28;20039;-50
2021/10/29 16:41:27;;;;;;;19.23;11.00;;;13.90;99.90;;;;;;5090770;28;20028;-48
2021/10/29 16:43:53;;;;;;;16.02;9.35;;;13.80;99.90;;;;;;5092161;28;20067;-47
2021/10/29 16:46:18;;;;;;;26.85;11.48;;;13.70;99.90;;;;;;5092527;28;20089;-47
2021/10/29 16:48:44;;;;;;;14.57;9.77;;;13.60;99.90;;;;;;5085551;28;20353;-46
2021/10/29 16:51:12;;;;;;;17.67;11.07;;;13.60;99.90;;;;;;5085105;28;20039;-47
2021/10/29 16:53:37;;;;;;;16.85;10.02;;;13.60;99.90;;;;;;5072171;28;20135;-48
2021/10/29 16:56:03;;;;;;;18.48;10.63;;;13.50;99.90;;;;;;5069781;28;20309;-46
2021/10/29 16:58:29;;;;;;;20.48;11.73;;;13.50;99.90;;;;;;5070995;28;20040;-47
2021/10/29 17:00:54;;;;;;;19.48;11.13;;;13.40;99.90;;;;;;5069815;28;20402;-51
2021/10/29 17:03:20;;;;;;;22.17;11.48;;;13.30;99.90;;;;;;5069822;28;20103;-46
2021/10/29 17:05:45;;;;;;;18.85;11.35;;;13.30;99.90;;;;;;5071389;28;20489;-51
2021/10/29 17:08:12;;;;;;;20.73;10.52;;;13.20;99.90;;;;;;5070464;28;20100;-52
2021/10/29 17:10:38;;;;;;;18.42;10.95;;;13.20;99.90;;;;;;5071247;28;20466;-49
2021/10/29 17:13:04;;;;;;;18.80;11.10;;;13.10;99.90;;;;;;5071209;28;20147;-52
2021/10/29 17:15:31;;;;;;;20.63;11.10;;;13.00;99.90;;;;;;5071040;28;20027;-52
2021/10/29 17:17:56;;;;;;;23.50;11.65;;;13.00;99.90;;;;;;5071089;28;20100;-53
2021/10/29 17:20:22;;;;;;;19.38;11.70;;;12.80;99.90;;;;;;5082769;28;20721;-47
2021/10/29 17:22:49;;;;;;;21.50;10.88;;;12.80;99.90;;;;;;5090136;28;20058;-47
2021/10/29 17:25:15;;;;;;;24.08;12.07;;;12.80;99.90;;;;;;5091246;28;20027;-48